createdAt,value
2019-04-28T00:00:08.726Z,13.60
2019-04-28T00:01:08.697Z,14.20
2019-04-28T00:02:08.666Z,13.30
2019-04-28T00:03:08.636Z,13.90
2019-04-28T00:04:08.617Z,13.90
2019-04-28T00:05:08.581Z,11.90
2019-04-28T00:06:08.550Z,13.30
2019-04-28T00:07:08.525Z,13.00
2019-04-28T00:08:08.496Z,13.30
2019-04-28T00:09:08.463Z,12.60
2019-04-28T00:10:08.435Z,13.30
2019-04-28T00:11:08.419Z,13.10
2019-04-28T00:12:08.377Z,13.60
2019-04-28T00:13:08.350Z,13.40
2019-04-28T00:14:08.586Z,13.30
2019-04-28T00:15:08.291Z,13.70
2019-04-28T00:16:08.262Z,13.10
2019-04-28T00:17:08.233Z,13.10
2019-04-28T00:18:08.204Z,13.40
2019-04-28T00:19:08.177Z,14.10
2019-04-28T00:20:08.148Z,14.10
2019-04-28T00:21:08.119Z,13.80
2019-04-28T00:22:08.089Z,13.40
2019-04-28T00:23:08.071Z,13.70
2019-04-28T00:24:08.033Z,14.50
2019-04-28T00:25:08.002Z,14.60
2019-04-28T00:26:07.974Z,13.90
2019-04-28T00:27:07.946Z,14.90
2019-04-28T00:28:07.915Z,14.60
2019-04-28T00:29:07.888Z,15.20
2019-04-28T00:30:07.871Z,15.00
2019-04-28T00:31:07.838Z,15.00
2019-04-28T00:32:07.803Z,15.10
2019-04-28T00:33:07.771Z,14.80
2019-04-28T00:34:07.743Z,15.20
2019-04-28T00:35:07.716Z,14.90
2019-04-28T00:36:07.685Z,14.90
2019-04-28T00:37:07.657Z,15.60
2019-04-28T00:38:07.629Z,17.10
2019-04-28T00:39:07.599Z,16.80
2019-04-28T00:40:07.570Z,17.00
2019-04-28T00:41:07.543Z,17.60
2019-04-28T00:42:07.512Z,17.50
2019-04-28T00:43:07.490Z,14.70
2019-04-28T00:44:07.459Z,15.90
2019-04-28T00:45:07.427Z,16.20
2019-04-28T00:46:07.397Z,15.20
2019-04-28T00:47:07.377Z,15.80
2019-04-28T00:48:07.339Z,15.80
2019-04-28T00:49:07.310Z,15.10
2019-04-28T00:50:07.283Z,15.20
2019-04-28T00:51:07.251Z,15.30
2019-04-28T00:52:07.223Z,14.50
2019-04-28T00:53:07.194Z,15.60
2019-04-28T00:54:07.168Z,15.60
2019-04-28T00:55:07.137Z,14.20
2019-04-28T00:56:07.111Z,14.00
2019-04-28T00:57:07.084Z,14.90
2019-04-28T00:58:07.049Z,14.50
2019-04-28T00:59:07.022Z,13.20
2019-04-28T01:00:06.993Z,13.90
2019-04-28T01:01:06.964Z,14.20
2019-04-28T01:02:06.934Z,14.60
2019-04-28T01:03:06.905Z,13.70
2019-04-28T01:04:06.876Z,14.30
2019-04-28T01:05:06.847Z,14.20
2019-04-28T01:06:06.821Z,15.40
2019-04-28T01:07:06.789Z,14.50
2019-04-28T01:08:06.759Z,14.30
2019-04-28T01:09:06.734Z,14.40
2019-04-28T01:10:06.702Z,14.40
2019-04-28T01:11:06.677Z,15.30
2019-04-28T01:12:06.644Z,14.80
2019-04-28T01:13:06.616Z,15.00
2019-04-28T01:14:06.588Z,16.00
2019-04-28T01:15:06.559Z,14.80
2019-04-28T01:16:06.534Z,14.70
2019-04-28T01:17:06.500Z,14.60
2019-04-28T01:18:06.469Z,14.10
2019-04-28T01:19:06.442Z,14.00
2019-04-28T01:20:06.413Z,15.30
2019-04-28T01:21:06.384Z,13.30
2019-04-28T01:22:06.354Z,14.60
2019-04-28T01:23:06.324Z,14.20
2019-04-28T01:24:06.297Z,14.30
2019-04-28T01:25:06.270Z,14.30
2019-04-28T01:26:06.237Z,13.90
2019-04-28T01:27:06.213Z,14.10
2019-04-28T01:28:06.181Z,12.60
2019-04-28T01:29:06.152Z,14.00
2019-04-28T01:30:08.651Z,14.60
2019-04-28T01:31:06.101Z,13.70
2019-04-28T01:32:06.070Z,14.40
2019-04-28T01:33:06.036Z,14.50
2019-04-28T01:34:06.006Z,13.60
2019-04-28T01:35:05.981Z,11.70
2019-04-28T01:36:05.953Z,13.20
2019-04-28T01:37:05.924Z,14.30
2019-04-28T01:38:05.892Z,15.00
2019-04-28T01:39:05.864Z,13.80
2019-04-28T01:40:05.834Z,14.20
2019-04-28T01:41:05.805Z,14.20
2019-04-28T01:42:05.779Z,13.10
2019-04-28T01:43:05.746Z,14.10
2019-04-28T01:44:05.723Z,12.20
2019-04-28T01:45:05.695Z,14.40
2019-04-28T01:46:05.659Z,13.30
2019-04-28T01:47:05.631Z,14.40
2019-04-28T01:48:05.605Z,13.00
2019-04-28T01:49:05.572Z,11.90
2019-04-28T01:50:05.543Z,13.40
2019-04-28T01:51:05.526Z,12.50
2019-04-28T01:52:05.490Z,14.40
2019-04-28T01:53:05.457Z,14.10
2019-04-28T01:54:05.432Z,14.80
2019-04-28T01:55:05.398Z,13.90
2019-04-28T01:56:05.373Z,13.90
2019-04-28T01:57:05.340Z,14.70
2019-04-28T01:58:05.312Z,14.20
2019-04-28T01:59:05.282Z,14.40
2019-04-28T02:00:05.253Z,15.20
2019-04-28T02:01:05.249Z,15.40
2019-04-28T02:02:05.197Z,15.20
2019-04-28T02:03:05.166Z,14.60
2019-04-28T02:04:05.140Z,15.90
2019-04-28T02:05:05.107Z,16.60
2019-04-28T02:06:05.086Z,15.10
2019-04-28T02:07:05.063Z,17.50
2019-04-28T02:08:05.020Z,17.70
2019-04-28T02:09:04.996Z,17.30
2019-04-28T02:10:04.966Z,18.00
2019-04-28T02:11:04.937Z,17.20
2019-04-28T02:12:04.907Z,18.30
2019-04-28T02:13:04.880Z,16.90
2019-04-28T02:14:04.846Z,14.70
2019-04-28T02:15:04.819Z,18.00
2019-04-28T02:16:04.787Z,17.50
2019-04-28T02:17:04.763Z,17.60
2019-04-28T02:18:04.729Z,17.00
2019-04-28T02:19:04.703Z,16.70
2019-04-28T02:20:04.672Z,17.10
2019-04-28T02:21:04.646Z,16.90
2019-04-28T02:22:04.615Z,17.60
2019-04-28T02:23:04.590Z,18.10
2019-04-28T02:24:04.556Z,17.70
2019-04-28T02:25:04.528Z,18.10
2019-04-28T02:26:04.514Z,15.00
2019-04-28T02:27:04.468Z,17.90
2019-04-28T02:28:04.440Z,17.50
2019-04-28T02:29:04.409Z,17.20
2019-04-28T02:30:04.382Z,17.80
2019-04-28T02:31:04.358Z,17.90
2019-04-28T02:32:04.325Z,17.10
2019-04-28T02:33:04.295Z,13.10
2019-04-28T02:34:04.265Z,16.80
2019-04-28T02:35:04.245Z,17.00
2019-04-28T02:36:04.209Z,16.80
2019-04-28T02:37:04.177Z,13.90
2019-04-28T02:38:04.150Z,16.70
2019-04-28T02:39:04.121Z,14.30
2019-04-28T02:40:04.104Z,15.80
2019-04-28T02:41:04.060Z,16.40
2019-04-28T02:42:04.033Z,16.20
2019-04-28T02:43:04.007Z,15.90
2019-04-28T02:44:03.974Z,16.60
2019-04-28T02:45:03.960Z,16.50
2019-04-28T02:46:03.915Z,14.90
2019-04-28T02:47:03.887Z,14.10
2019-04-28T02:48:03.859Z,12.70
2019-04-28T02:49:03.835Z,12.50
2019-04-28T02:50:03.799Z,12.70
2019-04-28T02:51:03.770Z,13.90
2019-04-28T02:52:03.743Z,13.00
2019-04-28T02:53:03.713Z,13.80
2019-04-28T02:54:03.682Z,14.20
2019-04-28T02:55:03.836Z,13.60
2019-04-28T02:56:03.627Z,13.70
2019-04-28T02:57:03.598Z,12.20
2019-04-28T02:58:03.566Z,12.00
2019-04-28T02:59:03.552Z,13.60
2019-04-28T03:00:03.517Z,12.80
2019-04-28T03:01:15.252Z,13.30
2019-04-28T03:02:03.455Z,13.70
2019-04-28T03:03:03.420Z,11.50
2019-04-28T03:04:03.399Z,12.00
2019-04-28T03:05:03.365Z,12.40
2019-04-28T03:06:03.331Z,13.30
2019-04-28T03:07:03.303Z,13.10
2019-04-28T03:08:03.272Z,10.30
2019-04-28T03:09:03.246Z,11.50
2019-04-28T03:10:04.026Z,12.70
2019-04-28T03:11:03.195Z,10.10
2019-04-28T03:12:03.157Z,11.20
2019-04-28T03:13:03.129Z,12.50
2019-04-28T03:14:03.099Z,11.40
2019-04-28T03:15:03.068Z,12.80
2019-04-28T03:16:03.038Z,13.40
2019-04-28T03:17:03.012Z,13.60
2019-04-28T03:18:02.985Z,12.70
2019-04-28T03:19:02.957Z,11.90
2019-04-28T03:20:02.923Z,11.90
2019-04-28T03:21:04.374Z,13.70
2019-04-28T03:22:02.864Z,13.40
2019-04-28T03:23:02.838Z,13.30
2019-04-28T03:24:02.855Z,13.00
2019-04-28T03:25:02.779Z,12.30
2019-04-28T03:26:02.751Z,13.50
2019-04-28T03:27:03.546Z,12.70
2019-04-28T03:28:02.687Z,12.60
2019-04-28T03:29:02.659Z,13.50
2019-04-28T03:30:02.629Z,14.10
2019-04-28T03:31:22.078Z,14.00
2019-04-28T03:32:22.843Z,13.70
2019-04-28T03:33:11.136Z,13.50
2019-04-28T03:34:03.920Z,12.10
2019-04-28T03:35:03.751Z,13.20
2019-04-28T03:41:41.750Z,13.00
2019-04-28T03:42:41.524Z,13.10
2019-04-28T03:43:41.486Z,12.20
2019-04-28T03:44:41.740Z,12.80
2019-04-28T03:45:41.427Z,12.00
2019-04-28T03:46:41.467Z,13.60
2019-04-28T03:47:41.368Z,12.60
2019-04-28T03:48:41.336Z,12.70
2019-04-28T03:49:43.327Z,13.50
2019-04-28T03:50:41.624Z,12.70
2019-04-28T03:51:41.264Z,13.90
2019-04-28T03:52:41.615Z,13.10
2019-04-28T03:53:41.260Z,13.00
2019-04-28T03:54:41.290Z,13.80
2019-04-28T03:55:41.765Z,13.60
2019-04-28T03:56:41.359Z,11.60
2019-04-28T03:57:41.387Z,12.90
2019-04-28T03:58:41.041Z,12.20
2019-04-28T03:59:43.471Z,11.70
2019-04-28T04:00:41.102Z,12.70
2019-04-28T04:01:55.975Z,12.80
2019-04-28T04:02:41.354Z,12.60
2019-04-28T04:03:41.758Z,12.80
2019-04-28T04:04:41.616Z,12.60
2019-04-28T04:05:40.893Z,12.30
2019-04-28T04:06:40.995Z,12.40
2019-04-28T04:07:43.144Z,13.50
2019-04-28T04:08:41.043Z,13.10
2019-04-28T04:09:41.390Z,12.40
2019-04-28T04:10:40.684Z,12.90
2019-04-28T04:11:41.122Z,13.00
2019-04-28T04:12:41.313Z,14.20
2019-04-28T04:13:41.604Z,13.30
2019-04-28T04:14:41.184Z,13.10
2019-04-28T04:15:41.243Z,13.00
2019-04-28T04:16:40.807Z,13.30
2019-04-28T04:17:41.337Z,14.30
2019-04-28T04:18:40.896Z,14.00
2019-04-28T04:19:40.857Z,13.40
2019-04-28T04:20:41.147Z,14.70
2019-04-28T04:21:40.863Z,14.00
2019-04-28T04:22:41.202Z,14.40
2019-04-28T04:23:41.040Z,14.20
2019-04-28T04:24:40.618Z,14.70
2019-04-28T04:25:41.614Z,13.80
2019-04-28T04:26:40.907Z,13.90
2019-04-28T04:27:40.687Z,14.10
2019-04-28T04:28:41.580Z,13.20
2019-04-28T04:29:43.601Z,13.90
2019-04-28T04:30:40.924Z,14.20
2019-04-28T04:31:41.350Z,13.60
2019-04-28T04:32:41.076Z,14.30
2019-04-28T04:33:41.039Z,12.70
2019-04-28T04:34:40.722Z,12.60
2019-04-28T04:35:41.198Z,13.80
2019-04-28T04:36:41.687Z,13.20
2019-04-28T04:37:40.757Z,13.90
2019-04-28T04:38:43.008Z,12.80
2019-04-28T04:39:40.737Z,12.20
2019-04-28T04:40:41.283Z,12.10
2019-04-28T04:41:40.915Z,12.00
2019-04-28T04:42:40.513Z,12.50
2019-04-28T04:43:41.591Z,12.20
2019-04-28T04:44:41.527Z,13.50
2019-04-28T04:45:40.491Z,13.70
2019-04-28T04:46:41.438Z,14.00
2019-04-28T04:47:40.638Z,14.90
2019-04-28T04:48:40.785Z,14.80
2019-04-28T04:49:40.485Z,13.90
2019-04-28T04:50:41.105Z,14.70
2019-04-28T04:51:43.320Z,13.20
2019-04-28T04:52:40.244Z,14.40
2019-04-28T04:53:40.787Z,13.40
2019-04-28T04:54:40.158Z,14.10
2019-04-28T04:55:40.822Z,12.00
2019-04-28T04:56:40.151Z,12.40
2019-04-28T04:57:40.777Z,14.00
2019-04-28T04:58:40.729Z,13.20
2019-04-28T04:59:40.108Z,12.50
2019-04-28T05:00:40.415Z,12.50
2019-04-28T05:01:40.735Z,12.40
2019-04-28T05:02:39.993Z,13.50
2019-04-28T05:03:39.707Z,13.60
2019-04-28T05:04:39.579Z,13.10
2019-04-28T05:05:40.382Z,13.30
2019-04-28T05:06:39.792Z,12.80
2019-04-28T05:07:39.675Z,13.30
2019-04-28T05:08:39.961Z,14.70
2019-04-28T05:09:39.506Z,14.50
2019-04-28T05:10:40.378Z,14.10
2019-04-28T05:11:40.045Z,13.40
2019-04-28T05:12:40.387Z,14.40
2019-04-28T05:13:39.903Z,14.10
2019-04-28T05:14:39.506Z,13.20
2019-04-28T05:15:40.059Z,13.80
2019-04-28T05:16:39.803Z,13.50
2019-04-28T05:17:40.208Z,14.40
2019-04-28T05:18:39.336Z,12.30
2019-04-28T05:19:40.148Z,13.80
2019-04-28T05:20:40.366Z,12.90
2019-04-28T05:21:40.132Z,13.50
2019-04-28T05:22:39.955Z,13.90
2019-04-28T05:23:40.007Z,14.60
2019-04-28T05:24:40.297Z,12.90
2019-04-28T05:25:39.563Z,12.90
2019-04-28T05:26:42.514Z,13.10
2019-04-28T05:27:39.941Z,13.80
2019-04-28T05:28:44.010Z,13.00
2019-04-28T05:29:39.834Z,14.50
2019-04-28T05:30:39.807Z,13.40
2019-04-28T05:31:40.106Z,14.40
2019-04-28T05:32:44.610Z,15.30
2019-04-28T05:33:39.599Z,14.50
2019-04-28T05:34:41.504Z,12.30
2019-04-28T05:35:39.696Z,14.40
2019-04-28T05:36:42.524Z,14.50
2019-04-28T05:37:38.119Z,12.20
2019-04-28T05:38:38.090Z,13.40
2019-04-28T05:39:40.330Z,13.40
2019-04-28T05:40:39.809Z,13.20
2019-04-28T05:41:39.871Z,14.50
2019-04-28T05:42:39.403Z,12.60
2019-04-28T05:43:37.943Z,9.50
2019-04-28T05:44:37.911Z,13.60
2019-04-28T05:45:39.610Z,13.00
2019-04-28T05:46:37.854Z,14.10
2019-04-28T05:47:37.824Z,13.50
2019-04-28T05:48:37.793Z,14.50
2019-04-28T05:49:39.587Z,14.60
2019-04-28T05:50:37.740Z,14.00
2019-04-28T05:51:37.709Z,14.90
2019-04-28T05:52:37.678Z,14.80
2019-04-28T05:53:37.653Z,14.40
2019-04-28T05:54:37.618Z,13.70
2019-04-28T05:55:39.419Z,13.90
2019-04-28T05:56:37.559Z,11.30
2019-04-28T05:57:37.532Z,13.50
2019-04-28T05:58:37.508Z,13.50
2019-04-28T05:59:37.474Z,12.80
2019-04-28T06:00:37.447Z,13.30
2019-04-28T06:02:21.910Z,13.00
2019-04-28T06:03:20.036Z,12.90
2019-04-28T06:04:19.954Z,13.60
2019-04-28T06:05:20.067Z,13.40
2019-04-28T06:06:20.454Z,13.70
2019-04-28T06:07:20.236Z,13.10
2019-04-28T06:08:20.189Z,12.60
2019-04-28T06:09:20.348Z,12.00
2019-04-28T06:10:20.244Z,12.30
2019-04-28T06:11:20.247Z,12.90
2019-04-28T06:12:20.132Z,12.90
2019-04-28T06:13:20.230Z,12.50
2019-04-28T06:14:19.882Z,13.40
2019-04-28T06:15:20.427Z,12.80
2019-04-28T06:16:19.581Z,11.60
2019-04-28T06:17:20.641Z,12.20
2019-04-28T06:18:20.601Z,12.70
2019-04-28T06:19:20.192Z,12.00
2019-04-28T06:20:20.175Z,13.30
2019-04-28T06:21:19.245Z,13.00
2019-04-28T06:22:19.219Z,13.40
2019-04-28T06:23:19.187Z,13.20
2019-04-28T06:24:19.158Z,12.10
2019-04-28T06:25:19.228Z,11.90
2019-04-28T06:26:19.098Z,11.00
2019-04-28T06:27:19.100Z,11.50
2019-04-28T06:28:19.042Z,11.30
2019-04-28T06:29:19.014Z,11.70
2019-04-28T06:30:18.980Z,11.50
2019-04-28T06:31:18.951Z,11.40
2019-04-28T06:32:18.923Z,12.10
2019-04-28T06:33:18.894Z,12.90
2019-04-28T06:34:18.871Z,13.40
2019-04-28T06:35:18.836Z,11.90
2019-04-28T06:36:18.804Z,12.60
2019-04-28T06:37:18.783Z,13.10
2019-04-28T06:38:18.747Z,12.40
2019-04-28T06:39:18.725Z,11.90
2019-04-28T06:40:18.687Z,12.40
2019-04-28T06:41:18.663Z,12.50
2019-04-28T06:42:18.630Z,12.70
2019-04-28T06:43:18.604Z,12.40
2019-04-28T06:44:18.569Z,13.10
2019-04-28T06:45:18.542Z,12.90
2019-04-28T06:46:18.510Z,13.40
2019-04-28T06:47:18.482Z,13.20
2019-04-28T06:48:18.454Z,13.10
2019-04-28T06:49:18.429Z,13.90
2019-04-28T06:50:18.394Z,13.10
2019-04-28T06:51:18.365Z,13.50
2019-04-28T06:52:18.537Z,14.00
2019-04-28T06:53:18.317Z,12.80
2019-04-28T06:54:18.281Z,13.60
2019-04-28T06:55:18.248Z,13.70
2019-04-28T06:56:18.222Z,12.50
2019-04-28T06:57:18.192Z,13.50
2019-04-28T06:58:18.163Z,14.30
2019-04-28T06:59:18.131Z,12.40
2019-04-28T07:00:18.118Z,13.80
2019-04-28T07:01:18.074Z,13.10
2019-04-28T07:02:18.043Z,13.00
2019-04-28T07:03:23.220Z,12.70
2019-04-28T07:04:17.985Z,13.90
2019-04-28T07:05:17.954Z,14.30
2019-04-28T07:06:17.925Z,14.60
2019-04-28T07:07:17.898Z,12.70
2019-04-28T07:08:17.869Z,12.60
2019-04-28T07:09:17.853Z,11.90
2019-04-28T07:10:17.812Z,13.70
2019-04-28T07:11:17.781Z,13.20
2019-04-28T07:12:17.752Z,14.00
2019-04-28T07:13:20.454Z,12.70
2019-04-28T07:14:17.693Z,13.90
2019-04-28T07:15:17.673Z,15.20
2019-04-28T07:16:17.635Z,15.20
2019-04-28T07:17:17.608Z,14.50
2019-04-28T07:18:17.576Z,14.20
2019-04-28T07:19:17.547Z,15.00
2019-04-28T07:20:17.516Z,16.40
2019-04-28T07:21:17.490Z,15.10
2019-04-28T07:22:17.460Z,15.20
2019-04-28T07:23:17.490Z,15.30
2019-04-28T07:24:17.402Z,15.90
2019-04-28T07:25:17.369Z,16.30
2019-04-28T07:26:17.341Z,18.00
2019-04-28T07:27:17.313Z,17.20
2019-04-28T07:28:17.289Z,18.30
2019-04-28T07:29:17.253Z,14.10
2019-04-28T07:30:17.224Z,17.40
2019-04-28T07:31:17.195Z,18.40
2019-04-28T07:32:17.169Z,19.10
2019-04-28T07:33:17.136Z,17.20
2019-04-28T07:34:17.115Z,13.80
2019-04-28T07:35:17.079Z,16.90
2019-04-28T07:36:17.047Z,17.70
2019-04-28T07:37:17.018Z,17.30
2019-04-28T07:38:16.990Z,19.10
2019-04-28T07:39:16.971Z,19.70
2019-04-28T07:40:16.931Z,20.20
2019-04-28T07:41:16.900Z,23.00
2019-04-28T07:42:16.874Z,20.60
2019-04-28T07:43:16.843Z,24.00
2019-04-28T07:44:16.813Z,22.10
2019-04-28T07:45:16.784Z,21.60
2019-04-28T07:46:16.756Z,22.50
2019-04-28T07:47:16.729Z,21.70
2019-04-28T07:48:16.697Z,16.90
2019-04-28T07:49:16.669Z,18.80
2019-04-28T07:50:16.638Z,23.60
2019-04-28T07:51:16.656Z,23.10
2019-04-28T07:52:16.579Z,25.60
2019-04-28T07:53:16.550Z,25.20
2019-04-28T07:54:16.521Z,24.60
2019-04-28T07:55:16.496Z,23.60
2019-04-28T07:56:16.463Z,22.40
2019-04-28T07:57:16.436Z,22.90
2019-04-28T07:58:16.406Z,23.10
2019-04-28T07:59:16.377Z,22.00
2019-04-28T08:00:16.349Z,22.00
2019-04-28T08:01:16.323Z,18.70
2019-04-28T08:02:16.288Z,20.40
2019-04-28T08:03:16.264Z,21.10
2019-04-28T08:04:16.232Z,20.50
2019-04-28T08:05:16.201Z,18.30
2019-04-28T08:06:16.177Z,17.80
2019-04-28T08:07:16.144Z,19.80
2019-04-28T08:08:16.115Z,12.50
2019-04-28T08:09:16.089Z,19.20
2019-04-28T08:10:16.062Z,18.30
2019-04-28T08:11:16.027Z,20.50
2019-04-28T08:12:15.998Z,16.20
2019-04-28T08:13:15.973Z,9.10
2019-04-28T08:14:15.940Z,7.80
2019-04-28T08:15:15.917Z,7.30
2019-04-28T08:16:15.883Z,7.10
2019-04-28T08:17:15.851Z,8.80
2019-04-28T08:18:15.830Z,7.60
2019-04-28T08:19:15.795Z,7.30
2019-04-28T08:20:15.764Z,8.60
2019-04-28T08:21:15.736Z,7.80
2019-04-28T08:22:15.706Z,7.20
2019-04-28T08:23:15.679Z,7.60
2019-04-28T08:24:15.649Z,7.70
2019-04-28T08:25:15.625Z,5.90
2019-04-28T08:26:15.592Z,7.40
2019-04-28T08:27:15.614Z,12.90
2019-04-28T08:28:15.538Z,13.10
2019-04-28T08:29:15.503Z,10.10
2019-04-28T08:30:15.473Z,9.00
2019-04-28T08:31:15.444Z,7.80
2019-04-28T08:32:15.416Z,12.00
2019-04-28T08:33:15.385Z,16.10
2019-04-28T08:34:15.357Z,10.50
2019-04-28T08:35:15.329Z,9.40
2019-04-28T08:36:15.300Z,11.80
2019-04-28T08:37:15.269Z,15.30
2019-04-28T08:38:15.246Z,10.90
2019-04-28T08:39:15.213Z,6.90
2019-04-28T08:40:15.183Z,8.90
2019-04-28T08:41:15.153Z,8.10
2019-04-28T08:42:15.125Z,16.40
2019-04-28T08:43:15.095Z,16.60
2019-04-28T08:44:15.065Z,16.20
2019-04-28T08:45:15.041Z,14.60
2019-04-28T08:46:15.007Z,19.20
2019-04-28T08:47:14.980Z,14.90
2019-04-28T08:48:14.950Z,13.70
2019-04-28T08:49:14.920Z,15.60
2019-04-28T08:50:14.943Z,18.40
2019-04-28T08:51:14.868Z,18.40
2019-04-28T08:52:14.834Z,16.70
2019-04-28T08:53:14.819Z,16.70
2019-04-28T08:54:14.779Z,16.60
2019-04-28T08:55:14.747Z,16.10
2019-04-28T08:56:14.716Z,16.80
2019-04-28T08:57:14.693Z,18.40
2019-04-28T08:58:14.660Z,18.70
2019-04-28T08:59:14.645Z,17.90
2019-04-28T09:27:05.530Z,11.60
2019-04-28T09:28:05.296Z,10.90
2019-04-28T09:29:05.273Z,10.60
2019-04-28T09:30:05.240Z,11.50
2019-04-28T10:21:57.329Z,5.60
2019-04-28T15:30:17.244Z,2.80
2019-04-28T15:31:17.226Z,2.80
2019-04-28T15:32:16.990Z,2.80
2019-04-28T15:33:16.968Z,2.70
2019-04-28T15:34:16.946Z,2.60
2019-04-28T15:35:16.925Z,2.70
2019-04-28T15:36:17.102Z,2.60
2019-04-28T15:39:24.255Z,2.70
2019-04-28T15:40:24.028Z,2.50
2019-04-28T15:41:24.005Z,2.60
2019-04-28T15:42:26.804Z,2.70
2019-04-28T15:49:45.680Z,2.40
2019-04-28T17:11:18.117Z,2.50
2019-04-28T17:12:17.884Z,2.40
2019-04-28T17:13:17.856Z,2.40
2019-04-28T17:14:17.825Z,2.40
2019-04-28T17:15:17.798Z,2.60
2019-04-28T17:16:17.774Z,2.70
2019-04-28T17:17:17.746Z,2.80
2019-04-28T17:18:17.715Z,2.20
2019-04-28T17:19:17.691Z,2.70
2019-04-28T17:20:17.666Z,2.70
2019-04-28T17:21:17.635Z,2.50
2019-04-28T17:22:17.609Z,2.60
2019-04-28T17:23:17.581Z,2.60
2019-04-28T17:24:17.563Z,2.40
2019-04-28T17:25:17.526Z,2.20
2019-04-28T17:26:17.502Z,2.70
2019-04-28T17:27:17.475Z,3.00
2019-04-28T17:28:17.445Z,2.70
2019-04-28T17:29:17.418Z,2.90
2019-04-28T17:30:17.391Z,2.70
2019-04-28T17:31:17.363Z,2.60
2019-04-28T17:32:17.346Z,2.90
2019-04-28T17:33:17.310Z,3.00
2019-04-28T17:34:17.282Z,2.90
2019-04-28T17:35:17.255Z,2.90
2019-04-28T17:36:17.229Z,2.80
2019-04-28T17:37:17.200Z,2.90
2019-04-28T17:38:17.176Z,3.20
2019-04-28T17:39:17.148Z,3.20
2019-04-28T17:40:17.120Z,3.20
2019-04-28T17:41:17.093Z,3.30
2019-04-28T17:42:17.065Z,2.90
2019-04-28T17:43:17.038Z,3.30
2019-04-28T17:44:17.426Z,3.30
2019-04-28T17:45:16.986Z,3.10
2019-04-28T17:46:16.962Z,3.00
2019-04-28T17:47:16.938Z,3.30
2019-04-28T17:48:16.902Z,3.50
2019-04-28T17:49:16.876Z,3.40
2019-04-28T17:50:16.850Z,3.60
2019-04-28T17:51:16.823Z,3.30
2019-04-28T17:52:16.799Z,3.50
2019-04-28T17:53:16.767Z,3.30
2019-04-28T17:54:16.741Z,3.10
2019-04-28T17:55:16.711Z,3.20
2019-04-28T17:56:16.684Z,3.20
2019-04-28T17:57:16.661Z,3.30
2019-04-28T17:58:16.630Z,3.50
2019-04-28T17:59:16.603Z,3.60
2019-04-28T18:13:01.167Z,3.10
2019-04-28T18:13:59.541Z,3.00
2019-04-28T18:15:42.102Z,3.20
2019-04-28T18:16:41.876Z,3.30
2019-04-28T18:21:13.985Z,3.60
2019-04-28T18:22:13.754Z,3.60
2019-04-28T18:23:13.724Z,3.90
2019-04-28T18:24:13.697Z,3.70
2019-04-28T18:25:13.668Z,3.20
2019-04-28T18:26:13.640Z,3.60
2019-04-28T18:27:13.814Z,3.30
2019-04-28T18:28:13.582Z,3.60
2019-04-28T18:29:13.555Z,3.60
2019-04-28T18:30:13.527Z,3.50
2019-04-28T18:31:13.499Z,3.50
2019-04-28T18:32:13.473Z,3.30
2019-04-28T18:33:13.443Z,3.40
2019-04-28T18:34:13.413Z,3.20
2019-04-28T18:35:13.387Z,3.80
2019-04-28T18:36:13.356Z,3.30
2019-04-28T18:37:13.330Z,3.50
2019-04-28T18:38:13.304Z,3.40
2019-04-28T18:39:13.273Z,3.30
2019-04-28T18:40:13.260Z,3.40
2019-04-28T18:41:13.216Z,3.50
2019-04-28T18:42:14.843Z,3.50
2019-04-28T18:43:13.163Z,3.10
2019-04-28T18:44:13.155Z,3.60
2019-04-28T18:45:13.104Z,3.30
2019-04-28T18:46:13.279Z,3.50
2019-04-28T18:47:13.048Z,3.40
2019-04-28T18:48:13.022Z,3.40
2019-04-28T18:49:12.992Z,3.30
2019-04-28T18:50:12.967Z,3.60
2019-04-28T18:51:12.937Z,3.20
2019-04-28T18:52:12.907Z,3.80
2019-04-28T18:53:12.886Z,3.60
2019-04-28T18:55:40.249Z,3.80
2019-04-28T18:56:37.599Z,3.80
2019-04-28T18:57:37.775Z,3.60
2019-04-28T18:58:37.746Z,3.40
2019-04-28T18:59:37.515Z,4.40
2019-04-28T19:00:37.490Z,4.00
2019-04-28T19:01:37.463Z,4.30
2019-04-28T19:02:37.429Z,4.10
2019-04-28T19:03:37.400Z,3.80
2019-04-28T19:04:37.371Z,4.40
2019-04-28T19:05:37.397Z,4.40
2019-04-28T19:06:37.314Z,4.50
2019-04-28T19:07:37.286Z,4.60
2019-04-28T19:08:48.410Z,4.50
2019-04-28T19:09:37.231Z,4.20
2019-04-28T19:10:40.146Z,4.30
2019-04-28T19:11:37.251Z,4.70
2019-04-28T19:12:37.144Z,4.90
2019-04-28T19:13:37.115Z,4.80
2019-04-28T19:14:37.093Z,4.20
2019-04-28T19:15:37.073Z,4.70
2019-04-28T19:16:37.029Z,4.40
2019-04-28T19:17:37.001Z,4.30
2019-04-28T19:18:36.978Z,4.40
2019-04-28T19:19:36.945Z,4.50
2019-04-28T19:20:36.916Z,4.40
2019-04-28T19:21:36.888Z,4.60
2019-04-28T19:22:36.858Z,4.90
2019-04-28T19:23:36.836Z,4.10
2019-04-28T19:24:36.801Z,4.80
2019-04-28T19:25:36.773Z,4.10
2019-04-28T19:26:36.782Z,4.20
2019-04-28T19:27:36.716Z,4.20
2019-04-28T19:28:36.688Z,4.20
2019-04-28T19:29:36.661Z,4.00
2019-04-28T19:30:36.651Z,3.70
2019-04-28T19:31:36.601Z,3.70
2019-04-28T19:32:36.573Z,3.80
2019-04-28T19:33:36.545Z,3.80
2019-04-28T19:34:36.542Z,3.50
2019-04-28T19:35:36.491Z,3.50
2019-04-28T19:36:36.462Z,3.50
2019-04-28T19:37:36.430Z,3.40
2019-04-28T19:38:36.402Z,3.20
2019-04-28T19:39:36.372Z,3.30
2019-04-28T19:40:36.346Z,3.30
2019-04-28T19:41:36.319Z,3.20
2019-04-28T19:42:36.289Z,3.20
2019-04-28T19:43:36.262Z,3.10
2019-04-28T19:44:36.231Z,3.30
2019-04-28T19:45:36.201Z,3.30
2019-04-28T19:46:36.180Z,2.90
2019-04-28T19:47:36.143Z,3.10
2019-04-28T19:48:36.178Z,3.30
2019-04-28T19:49:36.087Z,3.10
2019-04-28T19:50:36.062Z,3.30
2019-04-28T19:51:36.030Z,3.30
2019-04-28T19:52:39.027Z,3.40
2019-04-28T19:53:35.973Z,3.00
2019-04-28T19:54:35.946Z,3.30
2019-04-28T19:55:35.918Z,3.20
2019-04-28T19:56:35.889Z,3.60
2019-04-28T19:57:35.858Z,3.50
2019-04-28T19:58:35.829Z,3.50
2019-04-28T19:59:35.799Z,3.20
2019-04-28T20:00:35.777Z,3.50
2019-04-28T20:01:35.753Z,3.40
2019-04-28T20:02:35.715Z,3.10
2019-04-28T20:03:35.685Z,3.70
2019-04-28T20:04:35.659Z,3.90
2019-04-28T20:05:35.629Z,3.20
2019-04-28T20:06:35.601Z,3.60
2019-04-28T20:07:35.779Z,3.50
2019-04-28T20:08:35.551Z,3.90
2019-04-28T20:09:35.517Z,3.30
2019-04-28T20:12:42.849Z,3.60
2019-04-28T20:13:42.820Z,4.00
2019-04-28T20:14:42.589Z,3.80
2019-04-28T20:15:42.561Z,4.40
2019-04-28T20:16:42.733Z,4.30
2019-04-28T20:17:42.505Z,3.70
2019-04-28T20:18:42.474Z,4.10
2019-04-28T20:19:42.443Z,4.00
2019-04-28T20:20:42.416Z,3.70
2019-04-28T20:21:42.388Z,3.80
2019-04-28T20:22:42.359Z,4.00
2019-04-28T20:23:42.332Z,3.90
2019-04-28T20:24:47.417Z,4.10
2019-04-28T20:25:42.293Z,4.10
2019-04-28T20:26:42.447Z,3.80
2019-04-28T20:27:42.217Z,4.10
2019-04-28T20:28:42.184Z,4.50
2019-04-28T20:29:42.170Z,4.00
2019-04-28T20:30:42.126Z,4.10
2019-04-28T20:31:42.097Z,4.20
2019-04-28T20:32:42.068Z,4.50
2019-04-28T20:33:42.040Z,5.10
2019-04-28T20:34:42.012Z,4.90
2019-04-28T20:35:41.983Z,4.20
2019-04-28T20:36:41.953Z,4.60
2019-04-28T20:37:41.924Z,4.80
2019-04-28T20:38:41.901Z,4.40
2019-04-28T20:39:41.905Z,4.60
2019-04-28T20:40:41.838Z,4.60
2019-04-28T20:41:41.829Z,5.20
2019-04-28T20:42:41.781Z,4.50
2019-04-28T20:43:41.750Z,4.50
2019-04-28T20:44:41.723Z,4.10
2019-04-28T20:45:41.694Z,4.40
2019-04-28T20:46:41.666Z,4.40
2019-04-28T20:47:41.638Z,4.50
2019-04-28T20:48:41.611Z,4.40
2019-04-28T20:49:41.587Z,4.40
2019-04-28T20:50:41.550Z,4.50
2019-04-28T20:51:41.540Z,4.70
2019-04-28T20:52:41.494Z,4.80
2019-04-28T20:53:41.465Z,4.40
2019-04-28T20:54:41.434Z,4.50
2019-04-28T20:55:41.405Z,4.00
2019-04-28T20:56:41.375Z,4.00
2019-04-28T20:57:41.348Z,3.80
2019-04-28T20:58:41.320Z,3.90
2019-04-28T20:59:41.287Z,4.10
2019-04-28T21:00:41.260Z,4.10
2019-04-28T21:01:41.232Z,4.10
2019-04-28T21:02:41.203Z,4.20
2019-04-28T21:03:41.173Z,3.90
2019-04-28T21:04:41.145Z,4.20
2019-04-28T21:05:41.115Z,4.40
2019-04-28T21:06:41.087Z,3.80
2019-04-28T21:07:41.056Z,4.00
2019-04-28T21:08:41.029Z,4.00
2019-04-28T21:09:40.999Z,4.50
2019-04-28T21:10:40.974Z,3.70
2019-04-28T21:11:41.000Z,3.60
2019-04-28T21:12:40.913Z,3.40
2019-04-28T21:13:40.883Z,3.30
2019-04-28T21:14:40.857Z,3.90
2019-04-28T21:15:40.830Z,3.60
2019-04-28T21:16:40.797Z,3.60
2019-04-28T21:17:40.773Z,3.40
2019-04-28T21:18:40.739Z,3.70
2019-04-28T21:19:40.708Z,3.20
2019-04-28T21:20:40.681Z,3.60
2019-04-28T21:21:40.652Z,3.50